createdAt,value
2017-09-10T00:00:03.936Z,14.90
2017-09-10T00:01:07.349Z,14.90
2017-09-10T00:02:09.866Z,14.90
2017-09-10T00:03:12.351Z,14.90
2017-09-10T00:04:15.622Z,14.90
2017-09-10T00:05:18.141Z,14.90
2017-09-10T00:06:20.770Z,14.90
2017-09-10T00:07:23.260Z,14.90
2017-09-10T00:08:26.504Z,14.80
2017-09-10T00:09:29.741Z,14.80
2017-09-10T00:10:32.205Z,14.80
2017-09-10T00:11:34.806Z,14.80
2017-09-10T00:12:37.280Z,14.80
2017-09-10T00:13:39.745Z,14.80
2017-09-10T00:14:43.019Z,14.80
2017-09-10T00:15:45.584Z,14.80
2017-09-10T00:16:48.127Z,14.80
2017-09-10T00:17:51.500Z,14.80
2017-09-10T00:18:55.000Z,14.80
2017-09-10T00:19:58.255Z,14.80
2017-09-10T00:21:00.839Z,14.80
2017-09-10T00:22:03.301Z,14.80
2017-09-10T00:23:05.755Z,14.80
2017-09-10T00:24:09.022Z,14.80
2017-09-10T00:25:11.486Z,14.80
2017-09-10T00:26:14.016Z,14.80
2017-09-10T00:27:16.504Z,14.80
2017-09-10T00:28:18.966Z,14.70
2017-09-10T00:29:21.512Z,14.70
2017-09-10T00:30:24.094Z,14.70
2017-09-10T00:31:26.576Z,14.70
2017-09-10T00:32:29.820Z,14.70
2017-09-10T00:33:33.055Z,14.70
2017-09-10T00:34:36.460Z,14.70
2017-09-10T00:35:39.012Z,14.70
2017-09-10T00:36:41.494Z,14.60
2017-09-10T00:37:44.063Z,14.70
2017-09-10T00:38:46.589Z,14.60
2017-09-10T00:39:49.934Z,14.60
2017-09-10T00:40:53.164Z,14.60
2017-09-10T00:41:55.642Z,14.60
2017-09-10T00:42:58.120Z,14.60
2017-09-10T00:44:00.584Z,14.70
2017-09-10T00:45:03.168Z,14.70
2017-09-10T00:46:05.747Z,14.60
2017-09-10T00:47:08.240Z,14.60
2017-09-10T00:48:10.758Z,14.60
2017-09-10T00:49:14.092Z,14.60
2017-09-10T00:50:16.611Z,14.60
2017-09-10T00:51:19.077Z,14.60
2017-09-10T00:52:22.971Z,14.60
2017-09-10T00:53:25.466Z,14.60
2017-09-10T00:54:28.034Z,14.60
2017-09-10T00:55:30.574Z,14.60
2017-09-10T00:56:33.064Z,14.60
2017-09-10T00:57:35.588Z,14.60
2017-09-10T00:58:38.592Z,14.60
2017-09-10T00:59:41.062Z,14.60
2017-09-10T01:00:43.620Z,14.60
2017-09-10T01:01:46.490Z,14.60
2017-09-10T01:02:49.711Z,14.60
2017-09-10T01:03:52.999Z,14.60
2017-09-10T01:04:55.464Z,14.60
2017-09-10T01:05:57.971Z,14.60
2017-09-10T01:07:00.501Z,14.60
2017-09-10T01:08:02.957Z,14.60
2017-09-10T01:09:06.191Z,14.60
2017-09-10T01:10:08.730Z,14.60
2017-09-10T01:11:12.063Z,14.60
2017-09-10T01:12:14.566Z,14.50
2017-09-10T01:13:17.159Z,14.60
2017-09-10T01:14:19.612Z,14.50
2017-09-10T01:15:22.086Z,14.50
2017-09-10T01:16:24.664Z,14.50
2017-09-10T01:17:27.288Z,14.50
2017-09-10T01:18:29.776Z,14.50
2017-09-10T01:19:32.400Z,14.50
2017-09-10T01:20:34.855Z,14.50
2017-09-10T01:21:37.454Z,14.50
2017-09-10T01:22:40.693Z,14.50
2017-09-10T01:23:43.906Z,14.50
2017-09-10T01:24:46.372Z,14.50
2017-09-10T01:25:48.848Z,14.50
2017-09-10T01:26:51.370Z,14.50
2017-09-10T01:27:53.865Z,14.50
2017-09-10T01:28:56.393Z,14.50
2017-09-10T01:29:59.242Z,14.50
2017-09-10T01:31:01.772Z,14.50
2017-09-10T01:32:04.361Z,14.50
2017-09-10T01:33:06.875Z,14.50
2017-09-10T01:34:09.340Z,14.50
2017-09-10T01:35:11.828Z,14.50
2017-09-10T01:36:14.291Z,14.50
2017-09-10T01:37:16.807Z,14.50
2017-09-10T01:38:19.288Z,14.50
2017-09-10T01:39:22.520Z,14.40
2017-09-10T01:40:25.754Z,14.40
2017-09-10T01:41:29.004Z,14.40
2017-09-10T01:42:32.266Z,14.40
2017-09-10T01:43:34.724Z,14.40
2017-09-10T01:44:37.292Z,14.40
2017-09-10T01:45:39.753Z,14.40
2017-09-10T01:46:42.297Z,14.30
2017-09-10T01:47:44.807Z,14.30
2017-09-10T01:48:47.323Z,14.30
2017-09-10T01:49:49.853Z,14.30
2017-09-10T01:50:52.344Z,14.30
2017-09-10T01:51:54.904Z,14.30
2017-09-10T01:52:57.487Z,14.30
2017-09-10T01:53:59.939Z,14.30
2017-09-10T01:55:03.169Z,14.30
2017-09-10T01:56:06.394Z,14.20
2017-09-10T01:57:08.857Z,14.30
2017-09-10T01:58:12.135Z,14.20
2017-09-10T01:59:14.611Z,14.20
2017-09-10T02:00:17.839Z,14.20
2017-09-10T02:01:21.837Z,14.20
2017-09-10T02:02:24.307Z,14.20
2017-09-10T02:03:26.791Z,14.20
2017-09-10T02:04:29.260Z,14.20
2017-09-10T02:05:31.783Z,14.20
2017-09-10T02:06:34.255Z,14.20
2017-09-10T02:07:37.527Z,14.20
2017-09-10T02:08:40.044Z,14.20
2017-09-10T02:09:43.297Z,14.20
2017-09-10T02:10:45.753Z,14.20
2017-09-10T02:11:48.214Z,14.30
2017-09-10T02:12:50.666Z,14.20
2017-09-10T02:13:53.179Z,14.30
2017-09-10T02:14:55.640Z,14.20
2017-09-10T02:15:58.125Z,14.20
2017-09-10T02:17:00.592Z,14.20
2017-09-10T02:18:03.066Z,14.20
2017-09-10T02:19:05.575Z,14.20
2017-09-10T02:20:08.816Z,14.20
2017-09-10T02:21:12.036Z,14.20
2017-09-10T02:22:14.496Z,14.20
2017-09-10T02:23:16.954Z,14.20
2017-09-10T02:24:19.469Z,14.20
2017-09-10T02:25:21.943Z,14.20
2017-09-10T02:26:24.399Z,14.20
2017-09-10T02:27:26.862Z,14.20
2017-09-10T02:28:29.454Z,14.20
2017-09-10T02:29:31.981Z,14.20
2017-09-10T02:30:34.500Z,14.20
2017-09-10T02:31:36.960Z,14.20
2017-09-10T02:32:39.451Z,14.20
2017-09-10T02:33:41.953Z,14.20
2017-09-10T02:34:45.266Z,14.20
2017-09-10T02:35:48.203Z,14.10
2017-09-10T02:36:50.665Z,14.20
2017-09-10T02:37:53.909Z,14.20
2017-09-10T02:38:57.155Z,14.20
2017-09-10T02:40:00.415Z,14.20
2017-09-10T02:41:02.887Z,14.20
2017-09-10T02:42:05.339Z,14.20
2017-09-10T02:43:08.647Z,14.10
2017-09-10T02:44:11.129Z,14.10
2017-09-10T02:45:13.647Z,14.10
2017-09-10T02:46:17.779Z,14.10
2017-09-10T02:47:20.254Z,14.10
2017-09-10T02:48:22.726Z,14.10
2017-09-10T02:49:25.281Z,14.10
2017-09-10T02:50:28.535Z,14.10
2017-09-10T02:51:31.032Z,14.10
2017-09-10T02:52:33.584Z,14.10
2017-09-10T02:53:36.099Z,14.10
2017-09-10T02:54:39.389Z,14.10
2017-09-10T02:55:41.987Z,14.10
2017-09-10T02:56:44.511Z,14.10
2017-09-10T02:57:46.959Z,14.00
2017-09-10T02:58:49.504Z,14.00
2017-09-10T02:59:51.968Z,14.00
2017-09-10T03:00:55.277Z,14.00
2017-09-10T03:01:57.747Z,14.00
2017-09-10T03:03:00.201Z,14.00
2017-09-10T03:04:02.708Z,14.00
2017-09-10T03:05:05.170Z,14.00
2017-09-10T03:06:07.667Z,14.00
2017-09-10T03:07:10.172Z,14.00
2017-09-10T03:08:12.653Z,14.00
2017-09-10T03:09:15.104Z,14.00
2017-09-10T03:10:18.341Z,14.00
2017-09-10T03:11:20.842Z,13.90
2017-09-10T03:12:23.831Z,13.90
2017-09-10T03:13:27.052Z,13.90
2017-09-10T03:14:30.287Z,13.90
2017-09-10T03:15:32.742Z,13.90
2017-09-10T03:16:35.244Z,13.90
2017-09-10T03:17:38.475Z,14.00
2017-09-10T03:18:41.711Z,14.00
2017-09-10T03:19:44.175Z,14.00
2017-09-10T03:20:46.647Z,14.00
2017-09-10T03:21:49.144Z,14.00
2017-09-10T03:22:51.608Z,13.90
2017-09-10T03:23:54.070Z,14.00
2017-09-10T03:24:57.287Z,14.00
2017-09-10T03:26:00.520Z,14.00
2017-09-10T03:27:03.806Z,13.90
2017-09-10T03:28:06.270Z,14.00
2017-09-10T03:29:08.720Z,13.90
2017-09-10T03:30:11.949Z,14.00
2017-09-10T03:31:14.513Z,13.90
2017-09-10T03:32:17.767Z,13.90
2017-09-10T03:33:20.278Z,14.00
2017-09-10T03:34:22.735Z,13.90
2017-09-10T03:35:25.347Z,13.90
2017-09-10T03:36:27.838Z,13.90
2017-09-10T03:37:30.347Z,13.90
2017-09-10T03:38:32.816Z,13.90
2017-09-10T03:39:35.331Z,14.00
2017-09-10T03:40:37.795Z,13.90
2017-09-10T03:41:40.250Z,13.90
2017-09-10T03:42:42.800Z,13.90
2017-09-10T03:43:46.027Z,13.90
2017-09-10T03:44:49.249Z,13.90
2017-09-10T03:45:52.522Z,13.90
2017-09-10T03:46:55.749Z,13.90
2017-09-10T03:47:58.304Z,13.80
2017-09-10T03:49:00.760Z,13.90
2017-09-10T03:50:03.216Z,13.90
2017-09-10T03:51:05.679Z,13.90
2017-09-10T03:52:08.135Z,13.90
2017-09-10T03:53:10.627Z,13.90
2017-09-10T03:54:13.846Z,13.90
2017-09-10T03:55:17.122Z,13.90
2017-09-10T03:56:19.636Z,13.90
2017-09-10T03:57:22.164Z,13.90
2017-09-10T03:58:24.694Z,13.90
2017-09-10T03:59:27.143Z,13.80
2017-09-10T04:00:29.622Z,13.90
2017-09-10T04:01:32.851Z,13.90
2017-09-10T04:02:35.304Z,13.90
2017-09-10T04:03:37.808Z,13.90
2017-09-10T04:04:41.069Z,13.90
2017-09-10T04:05:43.519Z,13.90
2017-09-10T04:06:46.026Z,13.90
2017-09-10T04:07:48.568Z,13.90
2017-09-10T04:08:51.049Z,13.90
2017-09-10T04:09:54.284Z,13.80
2017-09-10T04:10:56.844Z,13.80
2017-09-10T04:11:59.995Z,13.80
2017-09-10T04:13:02.516Z,13.80
2017-09-10T04:14:05.123Z,13.90
2017-09-10T04:15:08.346Z,13.90
2017-09-10T04:16:11.577Z,13.80
2017-09-10T04:17:14.031Z,13.80
2017-09-10T04:18:17.274Z,13.80
2017-09-10T04:19:20.519Z,13.80
2017-09-10T04:20:23.752Z,13.80
2017-09-10T04:21:27.021Z,13.80
2017-09-10T04:22:29.488Z,13.80
2017-09-10T04:23:32.091Z,13.80
2017-09-10T04:24:34.594Z,13.80
2017-09-10T04:25:37.065Z,13.80
2017-09-10T04:26:39.531Z,13.80
2017-09-10T04:27:42.768Z,13.80
2017-09-10T04:28:45.994Z,13.80
2017-09-10T04:29:49.856Z,13.80
2017-09-10T04:30:53.284Z,13.80
2017-09-10T04:31:55.752Z,13.80
2017-09-10T04:32:58.237Z,13.80
2017-09-10T04:34:00.700Z,13.80
2017-09-10T04:35:03.192Z,13.80
2017-09-10T04:36:05.652Z,13.80
2017-09-10T04:37:08.157Z,13.80
2017-09-10T04:38:11.384Z,13.90
2017-09-10T04:39:13.944Z,13.90
2017-09-10T04:40:16.482Z,13.90
2017-09-10T04:41:18.992Z,13.90
2017-09-10T04:42:21.456Z,13.90
2017-09-10T04:43:23.911Z,13.90
2017-09-10T04:44:26.482Z,13.90
2017-09-10T04:45:28.976Z,13.90
2017-09-10T04:46:32.195Z,13.90
2017-09-10T04:47:34.663Z,13.90
2017-09-10T04:48:37.134Z,13.90
2017-09-10T04:49:40.027Z,13.90
2017-09-10T04:50:42.551Z,13.90
2017-09-10T04:51:45.024Z,13.90
2017-09-10T04:52:47.498Z,13.90
2017-09-10T04:53:50.111Z,13.80
2017-09-10T04:54:53.375Z,13.90
2017-09-10T04:55:55.862Z,13.80
2017-09-10T04:56:59.088Z,13.90
2017-09-10T04:58:01.555Z,13.90
2017-09-10T04:59:04.081Z,13.90
2017-09-10T05:00:07.313Z,13.90
2017-09-10T05:01:10.629Z,13.80
2017-09-10T05:02:13.114Z,13.80
2017-09-10T05:03:15.617Z,13.80
2017-09-10T05:04:18.839Z,13.80
2017-09-10T05:05:21.462Z,13.80
2017-09-10T05:06:23.951Z,13.80
2017-09-10T05:07:26.444Z,13.80
2017-09-10T05:08:28.901Z,13.80
2017-09-10T05:09:31.367Z,13.90
2017-09-10T05:10:34.605Z,13.90
2017-09-10T05:11:37.960Z,13.90
2017-09-10T05:12:41.184Z,13.90
2017-09-10T05:13:43.648Z,13.90
2017-09-10T05:14:46.180Z,13.90
2017-09-10T05:15:48.693Z,13.90
2017-09-10T05:16:51.948Z,14.00
2017-09-10T05:17:54.423Z,14.00
2017-09-10T05:18:56.883Z,14.00
2017-09-10T05:20:00.111Z,14.00
2017-09-10T05:21:03.352Z,14.10
2017-09-10T05:22:06.771Z,14.20
2017-09-10T05:23:09.298Z,14.10
2017-09-10T05:24:11.767Z,14.20
2017-09-10T05:25:14.232Z,14.20
2017-09-10T05:26:16.714Z,14.20
2017-09-10T05:27:19.975Z,14.20
2017-09-10T05:28:22.435Z,14.20
2017-09-10T05:29:24.906Z,14.30
2017-09-10T05:30:28.155Z,14.30
2017-09-10T05:31:30.682Z,14.30
2017-09-10T05:32:37.962Z,14.30
2017-09-10T05:33:40.424Z,14.30
2017-09-10T05:34:43.690Z,14.30
2017-09-10T05:35:46.211Z,14.30
2017-09-10T05:36:48.672Z,14.30
2017-09-10T05:37:51.164Z,14.30
2017-09-10T05:38:53.630Z,14.30
2017-09-10T05:39:56.087Z,14.30
2017-09-10T05:40:59.357Z,14.30
2017-09-10T05:42:02.612Z,14.30
2017-09-10T05:43:05.098Z,14.30
2017-09-10T05:44:08.327Z,14.30
2017-09-10T05:45:11.556Z,14.30
2017-09-10T05:46:14.022Z,14.30
2017-09-10T05:47:16.489Z,14.30
2017-09-10T05:48:18.999Z,14.30
2017-09-10T05:49:21.494Z,14.30
2017-09-10T05:50:24.768Z,14.40
2017-09-10T05:51:27.267Z,14.40
2017-09-10T05:52:29.775Z,14.40
2017-09-10T05:53:33.042Z,14.40
2017-09-10T05:54:35.526Z,14.40
2017-09-10T05:55:37.992Z,14.40
2017-09-10T05:56:40.505Z,14.40
2017-09-10T05:57:43.754Z,14.50
2017-09-10T05:58:46.248Z,14.50
2017-09-10T05:59:48.800Z,14.50
2017-09-10T06:00:52.031Z,14.50
2017-09-10T06:01:55.395Z,14.50
2017-09-10T06:02:57.860Z,14.50
2017-09-10T06:04:00.371Z,14.50
2017-09-10T06:05:02.838Z,14.60
2017-09-10T06:06:05.296Z,14.60
2017-09-10T06:07:07.768Z,14.70
2017-09-10T06:08:10.233Z,14.70
2017-09-10T06:09:13.617Z,14.80
2017-09-10T06:10:16.144Z,14.70
2017-09-10T06:11:18.711Z,14.80
2017-09-10T06:12:21.189Z,14.80
2017-09-10T06:13:23.648Z,14.80
2017-09-10T06:14:26.218Z,14.80
2017-09-10T06:15:28.788Z,14.90
2017-09-10T06:16:31.256Z,14.90
2017-09-10T06:17:35.159Z,14.90
2017-09-10T06:18:37.621Z,14.90
2017-09-10T06:19:40.882Z,15.00
2017-09-10T06:20:44.100Z,15.00
2017-09-10T06:21:46.613Z,15.00
2017-09-10T06:22:49.078Z,15.10
2017-09-10T06:23:52.311Z,15.20
2017-09-10T06:24:55.617Z,15.20
2017-09-10T06:25:58.085Z,15.20
2017-09-10T06:27:01.321Z,15.20
2017-09-10T06:28:04.554Z,15.20
2017-09-10T06:29:07.795Z,15.20
2017-09-10T06:30:11.070Z,15.30
2017-09-10T06:31:13.539Z,15.30
2017-09-10T06:32:16.123Z,15.30
2017-09-10T06:33:18.571Z,15.30
2017-09-10T06:34:21.089Z,15.30
2017-09-10T06:35:23.592Z,15.40
2017-09-10T06:36:26.867Z,15.50
2017-09-10T06:37:30.125Z,15.50
2017-09-10T06:38:32.614Z,15.50
2017-09-10T06:39:35.099Z,15.50
2017-09-10T06:40:38.373Z,15.50
2017-09-10T06:41:40.858Z,15.50
2017-09-10T06:42:43.421Z,15.50
2017-09-10T06:43:45.897Z,15.50
2017-09-10T06:44:48.539Z,15.50
2017-09-10T06:45:51.047Z,15.50
2017-09-10T06:46:53.571Z,15.50
2017-09-10T06:47:56.047Z,15.50
2017-09-10T06:48:58.559Z,15.60
2017-09-10T06:50:01.804Z,15.60
2017-09-10T06:51:05.023Z,15.70
2017-09-10T06:52:07.520Z,15.70
2017-09-10T06:53:09.992Z,15.70
2017-09-10T06:54:13.263Z,15.80
2017-09-10T06:55:15.783Z,15.80
2017-09-10T06:56:18.315Z,15.80
2017-09-10T06:57:21.559Z,15.80
2017-09-10T06:58:24.012Z,15.70
2017-09-10T06:59:26.484Z,15.70
2017-09-10T07:00:29.748Z,15.80
2017-09-10T07:01:32.227Z,15.80
2017-09-10T07:02:34.792Z,15.90
2017-09-10T07:03:37.415Z,15.90
2017-09-10T07:04:40.652Z,16.00
2017-09-10T07:05:43.902Z,16.00
2017-09-10T07:06:46.355Z,16.00
2017-09-10T07:07:48.965Z,16.10
2017-09-10T07:08:51.432Z,16.10
2017-09-10T07:09:53.874Z,16.20
2017-09-10T07:10:57.156Z,16.30
2017-09-10T07:11:59.693Z,16.20
2017-09-10T07:13:02.212Z,16.30
2017-09-10T07:14:04.739Z,16.30
2017-09-10T07:15:07.199Z,16.30
2017-09-10T07:16:09.659Z,16.30
2017-09-10T07:17:12.911Z,16.40
2017-09-10T07:18:16.307Z,16.40
2017-09-10T07:19:18.763Z,16.40
2017-09-10T07:20:21.992Z,16.50
2017-09-10T07:21:24.461Z,16.50
2017-09-10T07:22:26.938Z,16.50
2017-09-10T07:23:29.508Z,16.50
2017-09-10T07:24:32.079Z,16.50
2017-09-10T07:25:34.551Z,16.60
2017-09-10T07:26:37.792Z,16.70
2017-09-10T07:27:41.017Z,16.80
2017-09-10T07:28:44.262Z,16.80
2017-09-10T07:29:47.496Z,17.00
2017-09-10T07:30:49.953Z,17.00
2017-09-10T07:31:52.422Z,17.10
2017-09-10T07:32:54.894Z,17.20
2017-09-10T07:33:57.427Z,17.20
2017-09-10T07:34:59.973Z,17.20
2017-09-10T07:36:02.432Z,17.20
2017-09-10T07:37:04.894Z,17.30
2017-09-10T07:38:08.239Z,17.40
2017-09-10T07:39:11.491Z,17.50
2017-09-10T07:40:13.966Z,17.50
2017-09-10T07:41:16.455Z,17.70
2017-09-10T07:42:18.912Z,17.80
2017-09-10T07:43:21.398Z,17.90
2017-09-10T07:44:23.888Z,17.90
2017-09-10T07:45:27.139Z,18.20
2017-09-10T07:46:30.398Z,18.40
2017-09-10T07:47:32.919Z,18.40
2017-09-10T07:48:35.387Z,18.70
2017-09-10T07:49:37.870Z,19.00
2017-09-10T07:50:40.410Z,19.30
2017-09-10T07:51:42.887Z,19.50
2017-09-10T07:52:45.364Z,19.50
2017-09-10T07:53:47.827Z,19.40
2017-09-10T07:54:50.329Z,19.50
2017-09-10T07:55:52.787Z,19.50
2017-09-10T07:56:55.280Z,19.50
2017-09-10T07:57:57.783Z,19.50
2017-09-10T07:59:00.656Z,19.50
2017-09-10T08:00:03.120Z,19.50
2017-09-10T08:01:06.363Z,19.50
2017-09-10T08:02:09.611Z,19.40
2017-09-10T08:03:12.856Z,19.30
2017-09-10T08:04:15.384Z,19.30
2017-09-10T08:05:17.911Z,19.30
2017-09-10T08:06:20.378Z,19.20
2017-09-10T08:07:22.843Z,19.20
2017-09-10T08:08:26.250Z,19.20
2017-09-10T08:09:28.728Z,19.20
2017-09-10T08:10:31.204Z,19.30
2017-09-10T08:11:33.667Z,19.40
2017-09-10T08:12:36.888Z,19.30
2017-09-10T08:13:40.163Z,19.20
2017-09-10T08:14:42.628Z,19.20
2017-09-10T08:15:45.111Z,19.10
2017-09-10T08:16:47.584Z,19.00
2017-09-10T08:17:50.182Z,19.00
2017-09-10T08:18:52.647Z,19.00
2017-09-10T08:19:55.103Z,18.80
2017-09-10T08:20:58.333Z,18.70
2017-09-10T08:22:01.593Z,18.70
2017-09-10T08:23:04.052Z,18.70
2017-09-10T08:24:06.518Z,18.70
2017-09-10T08:25:08.983Z,18.70
2017-09-10T08:26:11.479Z,18.60
2017-09-10T08:27:14.708Z,18.40
2017-09-10T08:28:17.787Z,18.40
2017-09-10T08:29:20.251Z,18.40
2017-09-10T08:30:22.716Z,18.30
2017-09-10T08:31:26.078Z,18.20
2017-09-10T08:32:28.542Z,18.20
2017-09-10T08:33:31.059Z,18.20
2017-09-10T08:34:33.515Z,18.20
2017-09-10T08:35:35.966Z,18.30
2017-09-10T08:36:38.476Z,18.30
2017-09-10T08:37:41.713Z,18.40
2017-09-10T08:38:44.988Z,18.40
2017-09-10T08:39:47.446Z,18.40
2017-09-10T08:40:49.916Z,18.50
2017-09-10T08:41:53.787Z,18.60
2017-09-10T08:42:56.334Z,18.60
2017-09-10T08:43:58.795Z,18.70
2017-09-10T08:45:01.272Z,18.60
2017-09-10T08:46:03.779Z,18.60
2017-09-10T08:47:07.028Z,18.70
2017-09-10T08:48:09.577Z,18.70
2017-09-10T08:49:12.852Z,18.70
2017-09-10T08:50:15.318Z,18.70
2017-09-10T08:51:18.676Z,18.60
2017-09-10T08:52:21.205Z,18.60
2017-09-10T08:53:23.792Z,18.60
2017-09-10T08:54:27.045Z,18.40
2017-09-10T08:55:30.385Z,18.40
2017-09-10T08:56:33.683Z,18.30
2017-09-10T08:57:36.145Z,18.30
2017-09-10T08:58:38.616Z,18.40
2017-09-10T08:59:41.099Z,18.40
2017-09-10T09:00:43.570Z,18.60
2017-09-10T09:01:46.048Z,18.60
2017-09-10T09:02:49.444Z,18.80
2017-09-10T09:03:51.907Z,18.80
2017-09-10T09:04:54.383Z,18.90
2017-09-10T09:05:56.888Z,19.00
2017-09-10T09:07:00.295Z,19.20
2017-09-10T09:08:03.041Z,19.20
2017-09-10T09:09:05.487Z,19.30
2017-09-10T09:10:08.091Z,19.10
2017-09-10T09:11:10.601Z,19.10
2017-09-10T09:12:13.471Z,19.10
2017-09-10T09:13:16.754Z,19.00
2017-09-10T09:14:19.224Z,18.90
2017-09-10T09:15:22.455Z,19.00
2017-09-10T09:16:25.022Z,19.00
2017-09-10T09:17:27.495Z,19.00
2017-09-10T09:18:29.994Z,19.00
2017-09-10T09:19:32.466Z,19.10
2017-09-10T09:20:35.692Z,19.40
2017-09-10T09:21:38.215Z,19.40
2017-09-10T09:22:40.668Z,19.60
2017-09-10T09:23:43.943Z,19.80
2017-09-10T09:24:46.451Z,19.80
2017-09-10T09:25:49.715Z,19.90
2017-09-10T09:26:52.201Z,19.90
2017-09-10T09:27:55.705Z,20.10
2017-09-10T09:28:58.187Z,20.00
2017-09-10T09:30:01.710Z,20.20
2017-09-10T09:31:04.239Z,20.10
2017-09-10T09:32:06.719Z,20.20
2017-09-10T09:33:09.219Z,20.20
2017-09-10T09:34:11.899Z,20.10
2017-09-10T09:35:15.307Z,20.10
2017-09-10T09:36:17.836Z,20.00
2017-09-10T09:37:20.303Z,20.10
2017-09-10T09:38:22.929Z,20.10
2017-09-10T09:39:25.446Z,20.00
2017-09-10T09:40:27.932Z,19.90
2017-09-10T09:41:30.383Z,19.80
2017-09-10T09:42:32.970Z,19.80
2017-09-10T09:43:36.228Z,19.60
2017-09-10T09:44:38.689Z,19.60
2017-09-10T09:45:41.167Z,19.50
2017-09-10T09:46:44.547Z,19.60
2017-09-10T09:47:47.010Z,19.60
2017-09-10T09:48:50.240Z,19.70
2017-09-10T09:49:52.711Z,19.70
2017-09-10T09:50:55.545Z,19.70
2017-09-10T09:51:58.006Z,19.70
2017-09-10T09:53:00.639Z,19.80
2017-09-10T09:54:03.949Z,19.90
2017-09-10T09:55:06.637Z,19.80
2017-09-10T09:56:09.930Z,19.50
2017-09-10T09:57:12.937Z,19.50
2017-09-10T09:58:16.240Z,19.50
2017-09-10T09:59:18.743Z,19.50
2017-09-10T10:00:21.230Z,19.50
2017-09-10T10:01:24.447Z,19.50
2017-09-10T10:02:26.915Z,19.50
2017-09-10T10:03:29.432Z,19.60
2017-09-10T10:04:31.888Z,19.70
2017-09-10T10:05:34.390Z,19.70
2017-09-10T10:06:36.854Z,19.70
2017-09-10T10:07:39.307Z,19.70
2017-09-10T10:08:42.573Z,19.80
2017-09-10T10:09:45.048Z,19.80
2017-09-10T10:10:47.526Z,19.80
2017-09-10T10:11:50.040Z,19.90
2017-09-10T10:12:53.282Z,20.00
2017-09-10T10:13:56.516Z,20.00
2017-09-10T10:14:59.802Z,20.00
2017-09-10T10:16:02.349Z,20.00
2017-09-10T10:17:04.804Z,20.00
2017-09-10T10:18:08.032Z,20.00
2017-09-10T10:19:10.605Z,19.90
2017-09-10T10:20:13.077Z,20.00
2017-09-10T10:21:15.571Z,20.10
2017-09-10T10:22:18.172Z,20.10
2017-09-10T10:23:20.781Z,20.10
2017-09-10T10:24:24.030Z,19.90
2017-09-10T10:25:27.317Z,19.80
2017-09-10T10:26:29.797Z,19.80
2017-09-10T10:27:33.122Z,19.60
2017-09-10T10:28:35.586Z,19.60
2017-09-10T10:29:38.088Z,19.50
2017-09-10T10:30:41.330Z,19.40
2017-09-10T10:31:44.694Z,19.30
2017-09-10T10:32:47.158Z,19.30
2017-09-10T10:33:49.998Z,19.30
2017-09-10T10:34:52.499Z,19.30
2017-09-10T10:35:55.359Z,19.20
2017-09-10T10:36:57.818Z,19.20
2017-09-10T10:38:01.810Z,19.00
2017-09-10T10:39:04.275Z,19.00
2017-09-10T10:40:06.895Z,19.00
2017-09-10T10:41:09.366Z,19.00
2017-09-10T10:42:11.945Z,19.10
2017-09-10T10:43:14.444Z,19.20
2017-09-10T10:44:16.908Z,19.20
2017-09-10T10:45:19.432Z,19.30
2017-09-10T10:46:22.006Z,19.40
2017-09-10T10:47:24.516Z,19.50
2017-09-10T10:48:27.768Z,19.70
2017-09-10T10:49:30.227Z,19.70
2017-09-10T10:50:32.717Z,19.80
2017-09-10T10:51:35.219Z,19.80
2017-09-10T10:52:38.457Z,19.90
2017-09-10T10:53:40.923Z,19.90
2017-09-10T10:54:43.385Z,19.90
2017-09-10T10:55:45.847Z,20.00
2017-09-10T10:56:48.339Z,20.00
2017-09-10T10:57:50.819Z,20.00
2017-09-10T10:58:53.289Z,20.10
2017-09-10T10:59:55.789Z,20.10
2017-09-10T11:00:58.292Z,20.20
2017-09-10T11:02:00.766Z,20.10
2017-09-10T11:03:03.240Z,20.10
2017-09-10T11:04:06.063Z,20.00
2017-09-10T11:05:09.357Z,19.90
2017-09-10T11:06:11.819Z,19.90
2017-09-10T11:07:15.048Z,19.80
2017-09-10T11:08:17.557Z,19.80
2017-09-10T11:09:20.017Z,19.90
2017-09-10T11:10:23.247Z,19.80
2017-09-10T11:11:26.512Z,19.80
2017-09-10T11:12:28.963Z,19.80
2017-09-10T11:13:31.567Z,19.70
2017-09-10T11:14:34.055Z,19.50
2017-09-10T11:15:36.611Z,19.40
2017-09-10T11:16:39.155Z,19.40
2017-09-10T11:17:41.631Z,19.30
2017-09-10T11:18:44.874Z,19.40
2017-09-10T11:19:47.327Z,19.40
2017-09-10T11:20:50.574Z,19.60
2017-09-10T11:21:53.129Z,19.60
2017-09-10T11:22:55.628Z,19.70
2017-09-10T11:23:58.133Z,19.80
2017-09-10T11:25:01.390Z,20.00
2017-09-10T11:26:04.651Z,20.10
2017-09-10T11:27:07.209Z,20.10
2017-09-10T11:28:09.668Z,20.00
2017-09-10T11:29:12.940Z,19.90
2017-09-10T11:30:15.435Z,19.90
2017-09-10T11:31:18.674Z,19.80
2017-09-10T11:32:21.900Z,19.80
2017-09-10T11:33:24.469Z,19.80
2017-09-10T11:34:26.943Z,19.90
2017-09-10T11:35:29.525Z,19.90
2017-09-10T11:36:32.048Z,19.80
2017-09-10T11:37:34.514Z,19.70
2017-09-10T11:38:36.987Z,19.70
2017-09-10T11:39:40.251Z,19.60
2017-09-10T11:40:42.713Z,19.60
2017-09-10T11:41:45.188Z,19.60
2017-09-10T11:42:47.656Z,19.60
2017-09-10T11:43:50.126Z,19.60
2017-09-10T11:44:53.476Z,19.70
2017-09-10T11:45:55.937Z,19.70
2017-09-10T11:46:58.497Z,19.80
2017-09-10T11:48:00.951Z,19.90
2017-09-10T11:49:03.440Z,19.90
2017-09-10T11:50:05.952Z,20.00
2017-09-10T11:51:08.483Z,20.10
2017-09-10T11:52:11.060Z,20.20
2017-09-10T11:53:14.494Z,20.10
2017-09-10T11:54:17.042Z,20.10
2017-09-10T11:55:19.524Z,20.10
2017-09-10T11:56:22.081Z,20.00
2017-09-10T11:57:25.371Z,20.10
2017-09-10T11:58:27.859Z,20.10
2017-09-10T11:59:30.322Z,20.10
2017-09-10T12:00:32.827Z,20.20
2017-09-10T12:01:35.315Z,20.20
2017-09-10T12:02:38.550Z,20.20
2017-09-10T12:03:41.052Z,20.20
2017-09-10T12:04:43.611Z,20.30
2017-09-10T12:05:46.101Z,20.30
2017-09-10T12:06:49.060Z,20.30
2017-09-10T12:07:52.840Z,20.40
2017-09-10T12:08:55.308Z,20.40
2017-09-10T12:09:57.800Z,20.40
2017-09-10T12:11:00.270Z,20.40
2017-09-10T12:12:02.827Z,20.30
2017-09-10T12:13:06.241Z,20.20
2017-09-10T12:14:09.103Z,20.10
2017-09-10T12:15:11.657Z,20.00
2017-09-10T12:16:14.173Z,19.90
2017-09-10T12:17:16.674Z,19.80
2017-09-10T12:18:20.030Z,19.90
2017-09-10T12:19:22.518Z,19.90
2017-09-10T12:20:25.833Z,19.90
2017-09-10T12:21:28.400Z,19.90
2017-09-10T12:22:30.894Z,19.90
2017-09-10T12:23:34.516Z,20.00
2017-09-10T12:24:37.071Z,20.00
2017-09-10T12:25:39.575Z,20.10
2017-09-10T12:26:42.047Z,20.10
2017-09-10T12:27:44.511Z,20.10
2017-09-10T12:28:47.059Z,20.10
2017-09-10T12:29:49.781Z,20.10
2017-09-10T12:30:52.251Z,20.10
2017-09-10T12:31:54.724Z,20.00
2017-09-10T12:32:57.199Z,20.00
2017-09-10T12:33:59.669Z,20.00
2017-09-10T12:35:02.160Z,20.00
2017-09-10T12:36:04.650Z,20.00
2017-09-10T12:37:07.184Z,20.00
2017-09-10T12:38:09.653Z,20.00
2017-09-10T12:39:12.884Z,20.10
2017-09-10T12:40:16.150Z,20.20
2017-09-10T12:41:19.407Z,20.20
2017-09-10T12:42:21.879Z,20.20
2017-09-10T12:43:24.442Z,20.20
2017-09-10T12:44:27.667Z,20.20
2017-09-10T12:45:30.897Z,20.30
2017-09-10T12:46:34.078Z,20.20
2017-09-10T12:47:36.631Z,20.20
2017-09-10T12:48:39.096Z,20.30
2017-09-10T12:49:42.328Z,20.30
2017-09-10T12:50:44.821Z,20.30
2017-09-10T12:51:47.295Z,20.40
2017-09-10T12:52:50.520Z,20.40
2017-09-10T12:53:52.980Z,20.40
2017-09-10T12:54:55.483Z,20.40
2017-09-10T12:55:58.761Z,20.50
2017-09-10T12:57:01.799Z,20.50
2017-09-10T12:58:04.273Z,20.50
2017-09-10T12:59:06.732Z,20.50
2017-09-10T13:00:09.987Z,20.50
2017-09-10T13:01:12.434Z,20.50
2017-09-10T13:02:15.004Z,20.50
2017-09-10T13:03:18.242Z,20.50
2017-09-10T13:04:21.489Z,20.50
2017-09-10T13:05:24.037Z,20.50
2017-09-10T13:06:27.258Z,20.60
2017-09-10T13:07:30.545Z,20.60
2017-09-10T13:08:33.053Z,20.60
2017-09-10T13:09:35.531Z,20.60
2017-09-10T13:10:38.003Z,20.60
2017-09-10T13:11:40.459Z,20.60
2017-09-10T13:12:42.927Z,20.60
2017-09-10T13:13:46.159Z,20.40
2017-09-10T13:14:48.720Z,20.50
2017-09-10T13:15:51.293Z,20.40
2017-09-10T13:16:53.762Z,20.50
2017-09-10T13:17:56.988Z,20.40
2017-09-10T13:19:00.215Z,20.30
2017-09-10T13:20:02.683Z,20.30
2017-09-10T13:21:05.252Z,20.30
2017-09-10T13:22:07.695Z,20.20
2017-09-10T13:23:10.150Z,20.20
2017-09-10T13:24:12.727Z,20.20
2017-09-10T13:25:15.200Z,20.10
2017-09-10T13:26:18.447Z,20.10
2017-09-10T13:27:20.936Z,20.10